createdAt,value
2023-05-04T00:00:39.236Z,431.00
2023-05-04T00:01:39.267Z,433.00
2023-05-04T00:02:39.276Z,435.00
2023-05-04T00:03:39.343Z,434.00
2023-05-04T00:04:39.289Z,435.00
2023-05-04T00:05:39.202Z,435.00
2023-05-04T00:06:39.169Z,435.00
2023-05-04T00:07:39.206Z,433.00
2023-05-04T00:08:39.138Z,433.00
2023-05-04T00:09:39.157Z,432.00
2023-05-04T00:10:39.197Z,430.00
2023-05-04T00:11:39.207Z,432.00
2023-05-04T00:12:39.172Z,430.00
2023-05-04T00:13:39.114Z,429.00
2023-05-04T00:14:39.131Z,428.00
2023-05-04T00:15:39.137Z,430.00
2023-05-04T00:16:39.106Z,432.00
2023-05-04T00:17:39.084Z,431.00
2023-05-04T00:18:39.083Z,431.00
2023-05-04T00:19:39.116Z,432.00
2023-05-04T00:20:39.125Z,433.00
2023-05-04T00:21:39.077Z,431.00
2023-05-04T00:22:39.102Z,430.00
2023-05-04T00:23:39.109Z,433.00
2023-05-04T00:24:39.101Z,434.00
2023-05-04T00:25:39.086Z,433.00
2023-05-04T00:26:39.109Z,432.00
2023-05-04T00:27:39.120Z,434.00
2023-05-04T00:28:39.146Z,433.00
2023-05-04T00:29:39.125Z,434.00
2023-05-04T00:30:39.139Z,433.00
2023-05-04T00:31:39.252Z,432.00
2023-05-04T00:32:39.173Z,432.00
2023-05-04T00:33:39.155Z,433.00
2023-05-04T00:34:39.131Z,434.00
2023-05-04T00:35:39.125Z,434.00
2023-05-04T00:36:39.134Z,434.00
2023-05-04T00:37:39.113Z,438.00
2023-05-04T00:38:39.105Z,439.00
2023-05-04T00:39:39.158Z,440.00
2023-05-04T00:40:39.161Z,439.00
2023-05-04T00:41:39.114Z,439.00
2023-05-04T00:42:39.109Z,440.00
2023-05-04T00:43:39.130Z,441.00
2023-05-04T00:44:39.078Z,443.00
2023-05-04T00:45:39.089Z,442.00
2023-05-04T00:46:39.152Z,443.00
2023-05-04T00:47:39.117Z,443.00
2023-05-04T00:48:39.117Z,439.00
2023-05-04T00:49:39.083Z,441.00
2023-05-04T00:50:39.095Z,441.00
2023-05-04T00:51:39.130Z,439.00
2023-05-04T00:52:39.136Z,440.00
2023-05-04T00:53:39.181Z,441.00
2023-05-04T00:54:39.127Z,440.00
2023-05-04T00:55:39.111Z,440.00
2023-05-04T00:56:39.110Z,439.00
2023-05-04T00:57:39.192Z,439.00
2023-05-04T00:58:39.154Z,437.00
2023-05-04T00:59:39.123Z,436.00
2023-05-04T01:00:39.182Z,434.00
2023-05-04T01:01:39.154Z,432.00
2023-05-04T01:02:39.195Z,430.00
2023-05-04T01:03:39.220Z,433.00
2023-05-04T01:04:39.158Z,434.00
2023-05-04T01:05:39.190Z,437.00
2023-05-04T01:06:39.217Z,438.00
2023-05-04T01:07:39.178Z,437.00
2023-05-04T01:08:39.182Z,437.00
2023-05-04T01:09:39.200Z,437.00
2023-05-04T01:10:39.207Z,439.00
2023-05-04T01:11:39.223Z,438.00
2023-05-04T01:12:39.203Z,436.00
2023-05-04T01:13:39.178Z,438.00
2023-05-04T01:14:39.193Z,437.00
2023-05-04T01:15:39.244Z,439.00
2023-05-04T01:16:39.306Z,440.00
2023-05-04T01:17:39.299Z,436.00
2023-05-04T01:18:39.187Z,435.00
2023-05-04T01:19:39.191Z,434.00
2023-05-04T01:20:39.262Z,433.00
2023-05-04T01:21:39.239Z,432.00
2023-05-04T01:22:39.237Z,432.00
2023-05-04T01:23:39.221Z,430.00
2023-05-04T01:24:39.255Z,432.00
2023-05-04T01:25:39.280Z,432.00
2023-05-04T01:26:39.272Z,433.00
2023-05-04T01:27:39.272Z,432.00
2023-05-04T01:28:39.298Z,432.00
2023-05-04T01:29:39.311Z,432.00
2023-05-04T01:30:39.345Z,433.00
2023-05-04T01:31:39.305Z,433.00
2023-05-04T01:32:39.356Z,432.00
2023-05-04T01:33:39.365Z,435.00
2023-05-04T01:34:39.373Z,434.00
2023-05-04T01:35:39.380Z,432.00
2023-05-04T01:36:39.381Z,430.00
2023-05-04T01:37:39.353Z,429.00
2023-05-04T01:38:39.363Z,428.00
2023-05-04T01:39:39.347Z,429.00
2023-05-04T01:40:39.406Z,431.00
2023-05-04T01:41:39.409Z,433.00
2023-05-04T01:42:39.421Z,432.00
2023-05-04T01:43:39.419Z,432.00
2023-05-04T01:44:39.438Z,431.00
2023-05-04T01:45:39.429Z,429.00
2023-05-04T01:46:39.507Z,429.00
2023-05-04T01:47:39.468Z,430.00
2023-05-04T01:48:39.410Z,432.00
2023-05-04T01:49:39.433Z,431.00
2023-05-04T01:50:39.472Z,432.00
2023-05-04T01:51:39.481Z,431.00
2023-05-04T01:52:39.585Z,433.00
2023-05-04T01:53:39.502Z,437.00
2023-05-04T01:54:39.452Z,437.00
2023-05-04T01:55:39.521Z,436.00
2023-05-04T01:56:39.475Z,436.00
2023-05-04T01:57:39.529Z,436.00
2023-05-04T01:58:39.470Z,433.00
2023-05-04T01:59:39.544Z,433.00
2023-05-04T02:00:39.491Z,432.00
2023-05-04T02:01:39.512Z,431.00
2023-05-04T02:02:39.560Z,429.00
2023-05-04T02:03:39.570Z,428.00
2023-05-04T02:04:39.558Z,429.00
2023-05-04T02:05:39.535Z,428.00
2023-05-04T02:06:39.576Z,429.00
2023-05-04T02:07:39.547Z,430.00
2023-05-04T02:08:39.594Z,430.00
2023-05-04T02:09:39.602Z,432.00
2023-05-04T02:10:39.616Z,432.00
2023-05-04T02:11:39.622Z,432.00
2023-05-04T02:12:39.655Z,434.00
2023-05-04T02:13:39.643Z,433.00
2023-05-04T02:14:39.629Z,433.00
2023-05-04T02:15:39.634Z,434.00
2023-05-04T02:16:39.902Z,432.00
2023-05-04T02:17:39.865Z,428.00
2023-05-04T02:18:39.728Z,427.00
2023-05-04T02:19:39.729Z,425.00
2023-05-04T02:20:39.703Z,428.00
2023-05-04T02:21:39.729Z,426.00
2023-05-04T02:22:39.756Z,428.00
2023-05-04T02:23:39.769Z,428.00
2023-05-04T02:24:39.774Z,429.00
2023-05-04T02:25:39.778Z,428.00
2023-05-04T02:26:39.830Z,428.00
2023-05-04T02:27:39.832Z,428.00
2023-05-04T02:28:39.857Z,431.00
2023-05-04T02:29:39.894Z,433.00
2023-05-04T02:30:39.913Z,434.00
2023-05-04T02:31:39.955Z,434.00
2023-05-04T02:32:39.921Z,433.00
2023-05-04T02:33:39.914Z,432.00
2023-05-04T02:34:39.953Z,432.00
2023-05-04T02:35:39.976Z,435.00
2023-05-04T02:36:40.025Z,433.00
2023-05-04T02:37:39.995Z,433.00
2023-05-04T02:38:40.030Z,433.00
2023-05-04T02:39:40.056Z,432.00
2023-05-04T02:40:40.057Z,433.00
2023-05-04T02:41:40.081Z,430.00
2023-05-04T02:42:40.093Z,429.00
2023-05-04T02:43:40.130Z,428.00
2023-05-04T02:44:40.143Z,428.00
2023-05-04T02:45:40.186Z,427.00
2023-05-04T02:46:40.150Z,428.00
2023-05-04T02:47:40.212Z,428.00
2023-05-04T02:48:40.187Z,430.00
2023-05-04T02:49:40.234Z,432.00
2023-05-04T02:50:40.217Z,432.00
2023-05-04T02:51:40.218Z,431.00
2023-05-04T02:52:40.265Z,431.00
2023-05-04T02:53:40.270Z,431.00
2023-05-04T02:54:40.318Z,431.00
2023-05-04T02:55:40.337Z,429.00
2023-05-04T02:56:40.367Z,430.00
2023-05-04T02:57:40.382Z,432.00
2023-05-04T02:58:40.370Z,430.00
2023-05-04T02:59:40.410Z,433.00
2023-05-04T03:00:40.420Z,435.00
2023-05-04T03:01:40.505Z,434.00
2023-05-04T03:02:40.477Z,435.00
2023-05-04T03:03:40.437Z,436.00
2023-05-04T03:04:40.509Z,437.00
2023-05-04T03:05:40.506Z,437.00
2023-05-04T03:06:40.505Z,437.00
2023-05-04T03:07:40.533Z,434.00
2023-05-04T03:08:40.536Z,431.00
2023-05-04T03:09:40.518Z,432.00
2023-05-04T03:10:40.641Z,434.00
2023-05-04T03:11:40.597Z,435.00
2023-05-04T03:12:40.645Z,434.00
2023-05-04T03:13:40.605Z,432.00
2023-05-04T03:14:40.606Z,434.00
2023-05-04T03:15:40.610Z,433.00
2023-05-04T03:16:40.737Z,433.00
2023-05-04T03:17:40.647Z,431.00
2023-05-04T03:18:40.694Z,433.00
2023-05-04T03:19:40.700Z,436.00
2023-05-04T03:20:40.725Z,437.00
2023-05-04T03:21:40.741Z,437.00
2023-05-04T03:22:40.771Z,437.00
2023-05-04T03:23:40.774Z,437.00
2023-05-04T03:24:40.784Z,435.00
2023-05-04T03:25:40.784Z,434.00
2023-05-04T03:26:40.846Z,433.00
2023-05-04T03:27:40.861Z,432.00
2023-05-04T03:28:40.911Z,433.00
2023-05-04T03:29:40.893Z,433.00
2023-05-04T03:30:40.927Z,430.00
2023-05-04T03:31:40.945Z,430.00
2023-05-04T03:32:40.976Z,427.00
2023-05-04T03:33:40.955Z,425.00
2023-05-04T03:34:41.012Z,428.00
2023-05-04T03:35:41.018Z,426.00
2023-05-04T03:36:41.031Z,427.00
2023-05-04T03:37:41.027Z,429.00
2023-05-04T03:38:41.048Z,429.00
2023-05-04T03:39:41.057Z,427.00
2023-05-04T03:40:41.114Z,427.00
2023-05-04T03:41:41.067Z,425.00
2023-05-04T03:42:41.108Z,426.00
2023-05-04T03:43:41.119Z,427.00
2023-05-04T03:44:41.184Z,427.00
2023-05-04T03:45:41.218Z,425.00
2023-05-04T03:46:41.201Z,424.00
2023-05-04T03:47:41.221Z,425.00
2023-05-04T03:48:41.204Z,426.00
2023-05-04T03:49:41.212Z,428.00
2023-05-04T03:50:41.280Z,425.00
2023-05-04T03:51:41.273Z,424.00
2023-05-04T03:52:41.281Z,424.00
2023-05-04T03:53:42.166Z,424.00
2023-05-04T03:54:41.291Z,424.00
2023-05-04T03:55:41.308Z,425.00
2023-05-04T03:56:41.262Z,424.00
2023-05-04T03:57:41.278Z,426.00
2023-05-04T03:58:41.279Z,426.00
2023-05-04T03:59:41.281Z,426.00
2023-05-04T04:00:41.249Z,424.00
2023-05-04T04:01:41.236Z,426.00
2023-05-04T04:02:41.374Z,428.00
2023-05-04T04:03:41.335Z,430.00
2023-05-04T04:04:41.288Z,430.00
2023-05-04T04:05:41.225Z,430.00
2023-05-04T04:06:43.302Z,428.00
2023-05-04T04:07:41.198Z,430.00
2023-05-04T04:08:41.194Z,429.00
2023-05-04T04:09:41.188Z,428.00
2023-05-04T04:10:41.198Z,428.00
2023-05-04T04:11:41.158Z,429.00
2023-05-04T04:12:41.261Z,426.00
2023-05-04T04:13:41.176Z,427.00
2023-05-04T04:14:41.240Z,427.00
2023-05-04T04:15:42.676Z,423.00
2023-05-04T04:16:41.341Z,422.00
2023-05-04T04:17:41.348Z,422.00
2023-05-04T04:18:41.250Z,423.00
2023-05-04T04:19:41.264Z,425.00
2023-05-04T04:20:41.292Z,424.00
2023-05-04T04:21:41.325Z,423.00
2023-05-04T04:22:41.293Z,421.00
2023-05-04T04:23:41.397Z,421.00
2023-05-04T04:24:41.350Z,420.00
2023-05-04T04:25:42.094Z,420.00
2023-05-04T04:26:41.405Z,421.00
2023-05-04T04:27:41.410Z,422.00
2023-05-04T04:28:41.484Z,421.00
2023-05-04T04:29:41.486Z,422.00
2023-05-04T04:30:42.455Z,420.00
2023-05-04T04:31:41.643Z,421.00
2023-05-04T04:32:41.586Z,422.00
2023-05-04T04:33:41.621Z,422.00
2023-05-04T04:34:41.631Z,423.00
2023-05-04T04:35:41.585Z,427.00
2023-05-04T04:36:41.678Z,428.00
2023-05-04T04:37:41.664Z,430.00
2023-05-04T04:38:41.694Z,428.00
2023-05-04T04:39:41.755Z,428.00
2023-05-04T04:40:41.773Z,428.00
2023-05-04T04:41:41.774Z,429.00
2023-05-04T04:42:41.834Z,426.00
2023-05-04T04:43:41.829Z,423.00
2023-05-04T04:44:41.852Z,422.00
2023-05-04T04:45:41.911Z,422.00
2023-05-04T04:46:41.979Z,424.00
2023-05-04T04:47:41.968Z,422.00
2023-05-04T04:48:41.927Z,422.00
2023-05-04T04:49:41.980Z,421.00
2023-05-04T04:50:41.982Z,420.00
2023-05-04T04:51:41.980Z,421.00
2023-05-04T04:52:42.059Z,424.00
2023-05-04T04:53:42.065Z,426.00
2023-05-04T04:54:42.116Z,426.00
2023-05-04T04:55:42.114Z,425.00
2023-05-04T04:56:42.137Z,427.00
2023-05-04T04:57:42.137Z,426.00
2023-05-04T04:58:42.169Z,426.00
2023-05-04T04:59:42.170Z,426.00
2023-05-04T05:00:42.231Z,426.00
2023-05-04T05:01:42.251Z,426.00
2023-05-04T05:02:42.298Z,427.00
2023-05-04T05:03:42.274Z,427.00
2023-05-04T05:04:42.365Z,427.00
2023-05-04T05:05:42.346Z,429.00
2023-05-04T05:06:42.402Z,427.00
2023-05-04T05:07:42.367Z,429.00
2023-05-04T05:08:42.421Z,431.00
2023-05-04T05:09:42.419Z,431.00
2023-05-04T05:10:43.853Z,431.00
2023-05-04T05:11:42.498Z,432.00
2023-05-04T05:12:42.550Z,431.00
2023-05-04T05:13:42.545Z,431.00
2023-05-04T05:14:42.557Z,429.00
2023-05-04T05:15:42.558Z,428.00
2023-05-04T05:16:42.673Z,427.00
2023-05-04T05:17:42.679Z,429.00
2023-05-04T05:18:42.611Z,430.00
2023-05-04T05:19:42.666Z,432.00
2023-05-04T05:20:42.781Z,432.00
2023-05-04T05:21:42.694Z,432.00
2023-05-04T05:22:42.814Z,431.00
2023-05-04T05:23:42.752Z,428.00
2023-05-04T05:24:42.743Z,426.00
2023-05-04T05:25:42.815Z,425.00
2023-05-04T05:26:42.833Z,425.00
2023-05-04T05:27:42.852Z,425.00
2023-05-04T05:28:42.861Z,425.00
2023-05-04T05:29:42.868Z,427.00
2023-05-04T05:30:42.903Z,427.00
2023-05-04T05:31:42.901Z,429.00
2023-05-04T05:32:43.003Z,440.00
2023-05-04T05:33:42.923Z,493.00
2023-05-04T05:34:42.962Z,493.00
2023-05-04T05:35:43.010Z,484.00
2023-05-04T05:36:43.122Z,487.00
2023-05-04T05:37:43.117Z,492.00
2023-05-04T05:38:43.198Z,512.00
2023-05-04T05:39:43.214Z,526.00
2023-05-04T05:40:43.262Z,538.00
2023-05-04T05:41:43.214Z,561.00
2023-05-04T05:42:43.220Z,578.00
2023-05-04T05:43:43.241Z,634.00
2023-05-04T05:44:43.561Z,628.00
2023-05-04T05:45:43.574Z,627.00
2023-05-04T05:46:43.313Z,633.00
2023-05-04T05:47:43.405Z,640.00
2023-05-04T05:48:43.502Z,646.00
2023-05-04T05:49:46.122Z,648.00
2023-05-04T05:50:43.238Z,658.00
2023-05-04T05:51:43.218Z,665.00
2023-05-04T05:52:43.244Z,674.00
2023-05-04T05:53:43.201Z,743.00
2023-05-04T05:54:43.214Z,781.00
2023-05-04T05:55:43.217Z,787.00
2023-05-04T05:56:43.168Z,789.00
2023-05-04T05:57:43.168Z,785.00
2023-05-04T05:58:43.158Z,783.00
2023-05-04T05:59:43.177Z,788.00
2023-05-04T06:00:43.154Z,872.00
2023-05-04T06:01:43.153Z,850.00
2023-05-04T06:02:43.205Z,852.00
2023-05-04T06:03:43.369Z,854.00
2023-05-04T06:04:43.208Z,862.00
2023-05-04T06:05:43.119Z,867.00
2023-05-04T06:06:45.161Z,885.00
2023-05-04T06:07:43.555Z,893.00
2023-05-04T06:08:43.077Z,899.00
2023-05-04T06:09:43.133Z,916.00
2023-05-04T06:10:43.552Z,941.00
2023-05-04T06:11:43.568Z,934.00
2023-05-04T06:12:43.064Z,929.00
2023-05-04T06:13:43.065Z,949.00
2023-05-04T06:14:43.095Z,954.00
2023-05-04T06:15:43.079Z,948.00
2023-05-04T06:16:43.611Z,946.00
2023-05-04T06:17:43.605Z,894.00
2023-05-04T06:18:43.514Z,942.00
2023-05-04T06:19:43.078Z,931.00
2023-05-04T06:20:42.999Z,917.00
2023-05-04T06:21:42.995Z,926.00
2023-05-04T06:22:43.035Z,935.00
2023-05-04T06:23:43.025Z,924.00
2023-05-04T06:24:43.002Z,932.00
2023-05-04T06:25:42.999Z,945.00
2023-05-04T06:26:43.018Z,956.00
2023-05-04T06:27:42.979Z,953.00
2023-05-04T06:28:43.025Z,951.00
2023-05-04T06:29:42.979Z,948.00
2023-05-04T06:30:42.917Z,950.00
2023-05-04T06:31:42.971Z,944.00
2023-05-04T06:32:43.035Z,905.00
2023-05-04T06:33:43.172Z,899.00
2023-05-04T06:34:42.919Z,891.00
2023-05-04T06:35:42.915Z,884.00
2023-05-04T06:36:42.911Z,858.00
2023-05-04T06:37:42.905Z,840.00
2023-05-04T06:38:42.927Z,818.00
2023-05-04T06:39:43.039Z,809.00
2023-05-04T06:40:42.924Z,829.00
2023-05-04T06:41:42.888Z,809.00
2023-05-04T06:42:42.869Z,806.00
2023-05-04T06:43:42.862Z,812.00
2023-05-04T06:44:43.058Z,813.00
2023-05-04T06:45:42.921Z,807.00
2023-05-04T06:46:43.501Z,785.00
2023-05-04T06:47:42.918Z,767.00
2023-05-04T06:48:42.847Z,751.00
2023-05-04T06:49:42.877Z,735.00
2023-05-04T06:50:42.801Z,741.00
2023-05-04T06:51:43.102Z,757.00
2023-05-04T06:52:43.086Z,758.00
2023-05-04T06:53:43.040Z,754.00
2023-05-04T06:54:43.054Z,754.00
2023-05-04T06:55:42.794Z,739.00
2023-05-04T06:56:42.785Z,737.00
2023-05-04T06:57:42.762Z,727.00
2023-05-04T06:58:42.859Z,746.00
2023-05-04T06:59:42.857Z,760.00
2023-05-04T07:00:43.040Z,761.00
2023-05-04T07:01:43.001Z,769.00
2023-05-04T07:02:43.083Z,759.00
2023-05-04T07:03:43.269Z,763.00
2023-05-04T07:04:43.576Z,757.00
2023-05-04T07:05:43.164Z,751.00
2023-05-04T07:06:43.213Z,734.00
2023-05-04T07:07:43.284Z,744.00
2023-05-04T07:08:43.341Z,745.00
2023-05-04T07:09:43.376Z,746.00
2023-05-04T07:10:43.440Z,746.00
2023-05-04T07:11:43.518Z,756.00
2023-05-04T07:12:43.637Z,738.00
2023-05-04T07:13:44.559Z,740.00
2023-05-04T07:14:43.637Z,723.00
2023-05-04T07:15:43.704Z,733.00
2023-05-04T07:16:43.804Z,705.00
2023-05-04T07:17:43.826Z,701.00
2023-05-04T07:18:43.868Z,711.00
2023-05-04T07:19:43.877Z,726.00
2023-05-04T07:20:44.104Z,742.00
2023-05-04T07:21:43.985Z,756.00
2023-05-04T07:22:44.035Z,758.00
2023-05-04T07:23:44.106Z,783.00
2023-05-04T07:24:44.138Z,802.00
2023-05-04T07:25:44.594Z,854.00
2023-05-04T07:26:44.268Z,839.00
2023-05-04T07:27:44.331Z,843.00
2023-05-04T07:28:44.417Z,870.00
2023-05-04T07:29:44.601Z,806.00
2023-05-04T07:30:44.608Z,800.00
2023-05-04T07:31:44.571Z,789.00
2023-05-04T07:32:44.637Z,772.00
2023-05-04T07:33:44.616Z,783.00
2023-05-04T07:34:46.252Z,789.00
2023-05-04T07:35:45.570Z,788.00
2023-05-04T07:36:44.734Z,786.00
2023-05-04T07:37:44.753Z,783.00
2023-05-04T07:38:44.758Z,776.00
2023-05-04T07:39:44.766Z,767.00
2023-05-04T07:40:45.143Z,768.00
2023-05-04T07:41:45.904Z,785.00
2023-05-04T07:42:45.170Z,809.00
2023-05-04T07:43:45.118Z,823.00
2023-05-04T07:44:45.102Z,827.00
2023-05-04T07:45:45.661Z,825.00
2023-05-04T07:46:45.631Z,830.00
2023-05-04T07:47:45.629Z,834.00
2023-05-04T07:48:45.612Z,842.00
2023-05-04T07:49:45.554Z,895.00
2023-05-04T07:50:45.571Z,906.00
2023-05-04T07:51:45.670Z,914.00
2023-05-04T07:52:45.358Z,912.00
2023-05-04T07:53:45.271Z,905.00
2023-05-04T07:54:45.268Z,907.00
2023-05-04T07:55:45.276Z,916.00
2023-05-04T07:56:45.603Z,937.00
2023-05-04T07:57:45.593Z,956.00
2023-05-04T07:58:45.324Z,983.00
2023-05-04T07:59:45.534Z,991.00
2023-05-04T08:00:45.457Z,996.00
2023-05-04T08:01:45.672Z,1008.00
2023-05-04T08:02:45.542Z,1022.00
2023-05-04T08:03:45.445Z,1024.00
2023-05-04T08:04:46.081Z,1028.00
2023-05-04T08:05:45.638Z,1031.00
2023-05-04T08:06:45.660Z,1034.00
2023-05-04T08:07:45.605Z,1043.00
2023-05-04T08:08:45.659Z,1053.00
2023-05-04T08:09:45.756Z,1067.00
2023-05-04T08:10:45.821Z,1069.00
2023-05-04T08:12:45.925Z,1081.00
2023-05-04T08:13:45.916Z,1088.00
2023-05-04T08:14:45.988Z,1097.00
2023-05-04T08:15:46.099Z,1110.00
2023-05-04T08:16:46.145Z,1150.00
2023-05-04T08:17:46.228Z,1155.00
2023-05-04T08:18:46.327Z,1167.00
2023-05-04T08:19:46.389Z,1174.00
2023-05-04T08:20:46.336Z,1178.00
2023-05-04T08:21:46.422Z,1187.00
2023-05-04T08:22:46.563Z,1195.00
2023-05-04T08:23:46.474Z,1199.00
2023-05-04T08:24:46.524Z,1203.00
2023-05-04T08:25:46.546Z,1198.00
2023-05-04T08:26:52.350Z,1202.00
2023-05-04T08:27:47.658Z,1226.00
2023-05-04T08:28:46.671Z,1199.00
2023-05-04T08:29:46.712Z,1093.00
2023-05-04T08:30:46.760Z,998.00
2023-05-04T08:31:46.870Z,893.00
2023-05-04T08:32:46.908Z,869.00
2023-05-04T08:33:46.954Z,833.00
2023-05-04T08:34:46.904Z,793.00
2023-05-04T08:35:46.853Z,747.00
2023-05-04T08:36:46.922Z,728.00
2023-05-04T08:37:46.899Z,704.00
2023-05-04T08:38:47.445Z,677.00
2023-05-04T08:39:46.991Z,675.00
2023-05-04T08:40:48.158Z,675.00
2023-05-04T08:41:47.071Z,717.00
2023-05-04T08:42:47.018Z,777.00
2023-05-04T08:43:47.152Z,766.00
2023-05-04T08:44:47.018Z,758.00
2023-05-04T08:45:47.086Z,751.00
2023-05-04T08:46:46.987Z,741.00
2023-05-04T08:47:47.005Z,737.00
2023-05-04T08:48:46.954Z,730.00
2023-05-04T08:49:46.993Z,728.00
2023-05-04T08:50:47.108Z,730.00
2023-05-04T08:51:46.973Z,728.00
2023-05-04T08:52:47.004Z,730.00
2023-05-04T08:53:47.133Z,730.00
2023-05-04T08:54:46.933Z,727.00
2023-05-04T08:55:46.921Z,723.00
2023-05-04T08:56:46.909Z,726.00
2023-05-04T08:57:46.949Z,731.00
2023-05-04T08:58:46.916Z,731.00
2023-05-04T08:59:47.660Z,737.00
2023-05-04T09:00:46.935Z,785.00
2023-05-04T09:01:46.955Z,789.00
2023-05-04T09:02:47.029Z,778.00
2023-05-04T09:03:47.056Z,790.00
2023-05-04T09:04:46.896Z,794.00
2023-05-04T09:05:46.859Z,796.00
2023-05-04T09:06:47.113Z,803.00
2023-05-04T09:07:46.918Z,810.00
2023-05-04T09:08:46.812Z,821.00
2023-05-04T09:09:46.821Z,856.00
2023-05-04T09:10:46.829Z,874.00
2023-05-04T09:11:47.101Z,884.00
2023-05-04T09:12:46.852Z,896.00
2023-05-04T09:13:46.769Z,915.00
2023-05-04T09:14:48.676Z,927.00
2023-05-04T09:15:46.765Z,926.00
2023-05-04T09:16:46.790Z,939.00
2023-05-04T09:17:57.026Z,947.00
2023-05-04T09:18:49.749Z,941.00
2023-05-04T09:19:46.751Z,939.00
2023-05-04T09:20:46.731Z,951.00
2023-05-04T09:21:46.817Z,960.00
2023-05-04T09:22:46.719Z,961.00
2023-05-04T09:23:46.759Z,964.00
2023-05-04T09:24:46.714Z,967.00
2023-05-04T09:25:46.730Z,968.00
2023-05-04T09:26:46.695Z,975.00
2023-05-04T09:27:46.698Z,987.00
2023-05-04T09:28:46.712Z,993.00
2023-05-04T09:29:46.676Z,1001.00
2023-05-04T09:30:46.676Z,1016.00
2023-05-04T09:31:46.679Z,993.00
2023-05-04T09:32:46.762Z,1003.00
2023-05-04T09:33:47.155Z,912.00
2023-05-04T09:34:46.683Z,893.00
2023-05-04T09:35:46.662Z,944.00
2023-05-04T09:36:47.103Z,957.00
2023-05-04T09:37:46.625Z,955.00
2023-05-04T09:38:46.627Z,928.00
2023-05-04T09:39:46.592Z,929.00
2023-05-04T09:40:46.615Z,850.00
2023-05-04T09:41:46.667Z,834.00
2023-05-04T09:42:46.554Z,814.00
2023-05-04T09:43:46.596Z,804.00
2023-05-04T09:44:46.561Z,825.00
2023-05-04T09:45:46.639Z,833.00
2023-05-04T09:46:46.683Z,839.00
2023-05-04T09:47:46.600Z,831.00
2023-05-04T09:48:46.533Z,831.00
2023-05-04T09:49:46.545Z,820.00
2023-05-04T09:50:46.550Z,762.00
2023-05-04T09:51:46.760Z,832.00
2023-05-04T09:52:46.661Z,821.00
2023-05-04T09:53:46.623Z,807.00
2023-05-04T09:54:46.518Z,726.00
2023-05-04T09:55:46.498Z,728.00
2023-05-04T09:56:46.504Z,734.00
2023-05-04T09:57:46.459Z,781.00
2023-05-04T09:58:46.508Z,795.00
2023-05-04T09:59:46.541Z,801.00
2023-05-04T10:00:46.550Z,787.00
2023-05-04T10:01:46.586Z,791.00
2023-05-04T10:02:46.711Z,796.00
2023-05-04T10:03:46.550Z,790.00
2023-05-04T10:04:46.588Z,786.00
2023-05-04T10:05:46.656Z,786.00
2023-05-04T10:06:46.695Z,734.00
2023-05-04T10:07:46.698Z,761.00
2023-05-04T10:08:46.741Z,759.00
2023-05-04T10:09:46.853Z,717.00
2023-05-04T10:10:46.930Z,822.00
2023-05-04T10:11:46.898Z,795.00
2023-05-04T10:12:47.049Z,753.00
2023-05-04T10:13:47.064Z,750.00
2023-05-04T10:14:47.343Z,795.00
2023-05-04T10:15:47.144Z,785.00
2023-05-04T10:16:47.180Z,779.00
2023-05-04T10:17:47.268Z,766.00
2023-05-04T10:18:47.288Z,757.00
2023-05-04T10:19:47.321Z,764.00
2023-05-04T10:20:47.417Z,692.00
2023-05-04T10:21:47.431Z,684.00
2023-05-04T10:22:47.515Z,686.00
2023-05-04T10:23:47.599Z,677.00
2023-05-04T10:24:47.670Z,677.00
2023-05-04T10:25:47.703Z,681.00
2023-05-04T10:26:47.714Z,764.00
2023-05-04T10:27:47.773Z,776.00
2023-05-04T10:28:47.832Z,776.00
2023-05-04T10:29:47.882Z,777.00
2023-05-04T10:30:47.958Z,773.00
2023-05-04T10:31:48.012Z,766.00
2023-05-04T10:32:48.018Z,764.00
2023-05-04T10:33:48.108Z,780.00
2023-05-04T10:34:48.100Z,792.00
2023-05-04T10:35:48.130Z,796.00
2023-05-04T10:36:48.173Z,820.00
2023-05-04T10:37:48.153Z,838.00
2023-05-04T10:38:48.201Z,846.00
2023-05-04T10:39:48.242Z,857.00
2023-05-04T10:40:48.428Z,864.00
2023-05-04T10:41:48.289Z,875.00
2023-05-04T10:42:48.343Z,895.00
2023-05-04T10:43:48.375Z,909.00
2023-05-04T10:44:48.354Z,916.00
2023-05-04T10:45:48.414Z,923.00
2023-05-04T10:46:48.323Z,933.00
2023-05-04T10:47:48.383Z,943.00
2023-05-04T10:48:48.725Z,956.00
2023-05-04T10:49:48.391Z,968.00
2023-05-04T10:50:48.325Z,975.00
2023-05-04T10:52:48.337Z,992.00
2023-05-04T10:53:48.361Z,996.00
2023-05-04T10:54:48.355Z,1004.00
2023-05-04T10:55:48.365Z,1007.00
2023-05-04T10:56:48.321Z,1017.00
2023-05-04T10:57:48.358Z,1036.00
2023-05-04T10:58:48.365Z,1052.00
2023-05-04T10:59:48.362Z,1061.00
2023-05-04T11:00:48.437Z,1080.00
2023-05-04T11:01:48.326Z,1093.00
2023-05-04T11:02:50.343Z,1109.00
2023-05-04T11:03:48.411Z,1127.00
2023-05-04T11:04:48.343Z,1142.00
2023-05-04T11:05:48.354Z,1163.00
2023-05-04T11:06:48.350Z,1184.00
2023-05-04T11:07:48.334Z,1187.00
2023-05-04T11:08:48.379Z,1194.00
2023-05-04T11:09:48.344Z,1200.00
2023-05-04T11:10:48.375Z,1211.00
2023-05-04T11:11:48.374Z,1227.00
2023-05-04T11:12:48.490Z,1242.00
2023-05-04T11:13:48.681Z,1275.00
2023-05-04T11:14:48.721Z,1290.00
2023-05-04T11:15:48.485Z,1310.00
2023-05-04T11:16:48.588Z,1314.00
2023-05-04T11:17:48.792Z,1332.00
2023-05-04T11:18:48.710Z,1353.00
2023-05-04T11:19:48.591Z,1269.00
2023-05-04T11:20:48.741Z,1012.00
2023-05-04T11:21:48.689Z,1042.00
2023-05-04T11:22:48.697Z,926.00
2023-05-04T11:23:48.665Z,955.00
2023-05-04T11:24:48.868Z,926.00
2023-05-04T11:25:48.669Z,780.00
2023-05-04T11:26:48.805Z,688.00
2023-05-04T11:27:48.700Z,682.00
2023-05-04T11:28:48.723Z,680.00
2023-05-04T11:29:49.223Z,670.00
2023-05-04T11:30:48.799Z,660.00
2023-05-04T11:31:48.871Z,653.00
2023-05-04T11:32:49.034Z,630.00
2023-05-04T11:33:48.925Z,611.00
2023-05-04T11:34:49.007Z,602.00
2023-05-04T11:35:49.032Z,594.00
2023-05-04T11:36:49.918Z,585.00
2023-05-04T11:37:49.219Z,583.00
2023-05-04T11:38:49.251Z,572.00
2023-05-04T11:39:49.255Z,538.00
2023-05-04T11:40:49.377Z,526.00
2023-05-04T11:41:49.394Z,520.00
2023-05-04T11:42:49.474Z,515.00
2023-05-04T11:43:49.492Z,512.00
2023-05-04T11:44:49.611Z,514.00
2023-05-04T11:45:49.706Z,511.00
2023-05-04T11:46:49.688Z,506.00
2023-05-04T11:47:49.870Z,500.00
2023-05-04T11:48:49.870Z,495.00
2023-05-04T11:49:49.979Z,491.00
2023-05-04T11:50:49.966Z,485.00
2023-05-04T11:51:50.055Z,482.00
2023-05-04T11:52:50.091Z,481.00
2023-05-04T11:53:50.206Z,476.00
2023-05-04T11:54:50.226Z,475.00
2023-05-04T11:55:50.269Z,473.00
2023-05-04T11:56:50.315Z,471.00
2023-05-04T11:57:50.382Z,469.00
2023-05-04T11:58:50.441Z,463.00
2023-05-04T11:59:50.451Z,463.00
2023-05-04T12:00:50.534Z,459.00
2023-05-04T12:01:50.579Z,456.00
2023-05-04T12:02:50.723Z,453.00
2023-05-04T12:03:54.131Z,451.00
2023-05-04T12:04:50.704Z,451.00
2023-05-04T12:05:50.789Z,447.00
2023-05-04T12:06:50.705Z,443.00
2023-05-04T12:07:50.694Z,441.00
2023-05-04T12:08:50.681Z,440.00
2023-05-04T12:09:50.751Z,436.00
2023-05-04T12:10:50.673Z,432.00
2023-05-04T12:11:50.642Z,431.00
2023-05-04T12:12:50.689Z,430.00
2023-05-04T12:13:50.683Z,429.00
2023-05-04T12:14:50.758Z,429.00
2023-05-04T12:15:50.633Z,427.00
2023-05-04T12:16:50.678Z,429.00
2023-05-04T12:17:50.662Z,432.00
2023-05-04T12:18:50.598Z,431.00
2023-05-04T12:19:50.653Z,429.00
2023-05-04T12:20:50.595Z,428.00
2023-05-04T12:21:50.585Z,429.00
2023-05-04T12:22:50.577Z,430.00
2023-05-04T12:23:50.570Z,430.00
2023-05-04T12:24:50.599Z,429.00
2023-05-04T12:25:57.755Z,427.00
2023-05-04T12:26:51.558Z,426.00
2023-05-04T12:27:50.580Z,426.00
2023-05-04T12:28:50.541Z,426.00